sensor_id;sensor_type;location;lat;lon;timestamp;temperature;humidity
77523;SHT31;66637;-29.628;-49.938;2023-03-01T00:02:42;25.65;75.29
77523;SHT31;66637;-29.628;-49.938;2023-03-01T00:05:49;25.62;74.70
77523;SHT31;66637;-29.628;-49.938;2023-03-01T00:08:27;25.57;75.71
77523;SHT31;66637;-29.628;-49.938;2023-03-01T00:11:17;25.53;75.19
77523;SHT31;66637;-29.628;-49.938;2023-03-01T00:14:01;25.52;75.11
77523;SHT31;66637;-29.628;-49.938;2023-03-01T00:16:45;25.51;74.74
77523;SHT31;66637;-29.628;-49.938;2023-03-01T00:19:38;25.52;75.28
77523;SHT31;66637;-29.628;-49.938;2023-03-01T00:22:32;25.53;75.62
77523;SHT31;66637;-29.628;-49.938;2023-03-01T00:25:08;25.49;75.12
77523;SHT31;66637;-29.628;-49.938;2023-03-01T00:27:55;25.48;75.64
77523;SHT31;66637;-29.628;-49.938;2023-03-01T00:30:43;25.49;75.56
77523;SHT31;66637;-29.628;-49.938;2023-03-01T00:33:44;25.42;75.16
77523;SHT31;66637;-29.628;-49.938;2023-03-01T00:36:18;25.45;75.33
77523;SHT31;66637;-29.628;-49.938;2023-03-01T00:38:54;25.45;75.46
77523;SHT31;66637;-29.628;-49.938;2023-03-01T00:41:33;25.43;75.27
77523;SHT31;66637;-29.628;-49.938;2023-03-01T00:44:21;25.42;75.73
77523;SHT31;66637;-29.628;-49.938;2023-03-01T00:47:20;25.43;75.10
77523;SHT31;66637;-29.628;-49.938;2023-03-01T00:50:06;25.41;75.38
77523;SHT31;66637;-29.628;-49.938;2023-03-01T00:53:13;25.42;74.74
77523;SHT31;66637;-29.628;-49.938;2023-03-01T00:56:17;25.41;75.26
77523;SHT31;66637;-29.628;-49.938;2023-03-01T00:59:09;25.35;75.76
77523;SHT31;66637;-29.628;-49.938;2023-03-01T01:02:08;25.37;75.76
77523;SHT31;66637;-29.628;-49.938;2023-03-01T01:04:42;25.37;75.96
77523;SHT31;66637;-29.628;-49.938;2023-03-01T01:07:45;25.37;75.89
77523;SHT31;66637;-29.628;-49.938;2023-03-01T01:10:35;25.34;75.59
77523;SHT31;66637;-29.628;-49.938;2023-03-01T01:13:16;25.31;75.62
77523;SHT31;66637;-29.628;-49.938;2023-03-01T01:16:26;25.32;75.35
77523;SHT31;66637;-29.628;-49.938;2023-03-01T01:19:04;25.32;76.27
77523;SHT31;66637;-29.628;-49.938;2023-03-01T01:21:44;25.31;75.93
77523;SHT31;66637;-29.628;-49.938;2023-03-01T01:24:43;25.31;76.25
77523;SHT31;66637;-29.628;-49.938;2023-03-01T01:27:59;25.27;75.79
77523;SHT31;66637;-29.628;-49.938;2023-03-01T01:30:39;25.28;76.19
77523;SHT31;66637;-29.628;-49.938;2023-03-01T01:33:35;25.30;76.28
77523;SHT31;66637;-29.628;-49.938;2023-03-01T01:36:28;25.30;76.39
77523;SHT31;66637;-29.628;-49.938;2023-03-01T01:39:06;25.28;76.28
77523;SHT31;66637;-29.628;-49.938;2023-03-01T01:41:50;25.27;76.55
77523;SHT31;66637;-29.628;-49.938;2023-03-01T01:44:30;25.25;76.85
77523;SHT31;66637;-29.628;-49.938;2023-03-01T01:47:43;25.28;76.78
77523;SHT31;66637;-29.628;-49.938;2023-03-01T01:50:42;25.27;76.73
77523;SHT31;66637;-29.628;-49.938;2023-03-01T01:54:14;25.30;77.05
77523;SHT31;66637;-29.628;-49.938;2023-03-01T01:57:03;25.30;76.98
77523;SHT31;66637;-29.628;-49.938;2023-03-01T01:59:59;25.34;77.07
77523;SHT31;66637;-29.628;-49.938;2023-03-01T02:02:55;25.30;76.84
77523;SHT31;66637;-29.628;-49.938;2023-03-01T02:08:34;25.21;75.47
77523;SHT31;66637;-29.628;-49.938;2023-03-01T02:11:38;25.18;75.26
77523;SHT31;66637;-29.628;-49.938;2023-03-01T02:14:29;25.11;75.05
77523;SHT31;66637;-29.628;-49.938;2023-03-01T02:17:29;25.06;75.00
77523;SHT31;66637;-29.628;-49.938;2023-03-01T02:20:18;25.03;75.03
77523;SHT31;66637;-29.628;-49.938;2023-03-01T02:23:04;24.92;75.00
77523;SHT31;66637;-29.628;-49.938;2023-03-01T02:28:59;24.92;75.18
77523;SHT31;66637;-29.628;-49.938;2023-03-01T02:31:37;24.86;75.10
77523;SHT31;66637;-29.628;-49.938;2023-03-01T02:34:32;24.77;75.39
77523;SHT31;66637;-29.628;-49.938;2023-03-01T02:37:16;24.74;75.59
77523;SHT31;66637;-29.628;-49.938;2023-03-01T02:40:29;24.69;75.87
77523;SHT31;66637;-29.628;-49.938;2023-03-01T02:43:08;24.69;76.01
77523;SHT31;66637;-29.628;-49.938;2023-03-01T02:46:22;24.63;76.19
77523;SHT31;66637;-29.628;-49.938;2023-03-01T02:49:16;24.67;75.60
77523;SHT31;66637;-29.628;-49.938;2023-03-01T02:55:08;24.61;76.39
77523;SHT31;66637;-29.628;-49.938;2023-03-01T02:57:56;24.57;76.35
77523;SHT31;66637;-29.628;-49.938;2023-03-01T03:00:52;24.61;76.25
77523;SHT31;66637;-29.628;-49.938;2023-03-01T03:03:42;24.60;76.26
77523;SHT31;66637;-29.628;-49.938;2023-03-01T03:06:50;24.57;76.37
77523;SHT31;66637;-29.628;-49.938;2023-03-01T03:09:27;24.59;76.28
77523;SHT31;66637;-29.628;-49.938;2023-03-01T03:12:12;24.56;76.24
77523;SHT31;66637;-29.628;-49.938;2023-03-01T03:15:13;24.57;76.30
77523;SHT31;66637;-29.628;-49.938;2023-03-01T03:18:03;24.56;76.25
77523;SHT31;66637;-29.628;-49.938;2023-03-01T03:20:41;24.52;76.27
77523;SHT31;66637;-29.628;-49.938;2023-03-01T03:23:29;24.49;76.36
77523;SHT31;66637;-29.628;-49.938;2023-03-01T03:26:18;24.47;76.40
77523;SHT31;66637;-29.628;-49.938;2023-03-01T03:29:06;24.43;76.32
77523;SHT31;66637;-29.628;-49.938;2023-03-01T03:32:13;24.41;76.53
77523;SHT31;66637;-29.628;-49.938;2023-03-01T03:35:08;24.35;76.66
77523;SHT31;66637;-29.628;-49.938;2023-03-01T03:38:10;24.35;76.73
77523;SHT31;66637;-29.628;-49.938;2023-03-01T03:41:11;24.30;76.84
77523;SHT31;66637;-29.628;-49.938;2023-03-01T03:43:49;24.25;76.98
77523;SHT31;66637;-29.628;-49.938;2023-03-01T03:46:33;24.25;76.91
77523;SHT31;66637;-29.628;-49.938;2023-03-01T03:49:35;24.18;77.09
77523;SHT31;66637;-29.628;-49.938;2023-03-01T03:52:20;24.15;77.19
77523;SHT31;66637;-29.628;-49.938;2023-03-01T03:55:04;24.12;77.11
77523;SHT31;66637;-29.628;-49.938;2023-03-01T03:58:15;24.12;77.26
77523;SHT31;66637;-29.628;-49.938;2023-03-01T04:00:56;24.09;77.15
77523;SHT31;66637;-29.628;-49.938;2023-03-01T04:03:43;24.04;77.33
77523;SHT31;66637;-29.628;-49.938;2023-03-01T04:06:24;24.13;76.71
77523;SHT31;66637;-29.628;-49.938;2023-03-01T04:09:08;24.04;77.24
77523;SHT31;66637;-29.628;-49.938;2023-03-01T04:11:41;23.98;77.31
77523;SHT31;66637;-29.628;-49.938;2023-03-01T04:14:12;23.96;77.39
77523;SHT31;66637;-29.628;-49.938;2023-03-01T04:17:08;23.96;77.51
77523;SHT31;66637;-29.628;-49.938;2023-03-01T04:19:51;23.89;77.54
77523;SHT31;66637;-29.628;-49.938;2023-03-01T04:22:29;23.92;77.49
77523;SHT31;66637;-29.628;-49.938;2023-03-01T04:28:05;23.85;77.62
77523;SHT31;66637;-29.628;-49.938;2023-03-01T04:30:44;23.85;77.61
77523;SHT31;66637;-29.628;-49.938;2023-03-01T04:33:22;23.85;77.65
77523;SHT31;66637;-29.628;-49.938;2023-03-01T04:36:33;23.81;77.48
77523;SHT31;66637;-29.628;-49.938;2023-03-01T04:39:21;23.81;77.55
77523;SHT31;66637;-29.628;-49.938;2023-03-01T04:41:58;23.75;77.68
77523;SHT31;66637;-29.628;-49.938;2023-03-01T04:44:38;23.72;77.69
77523;SHT31;66637;-29.628;-49.938;2023-03-01T04:47:14;23.71;77.78
77523;SHT31;66637;-29.628;-49.938;2023-03-01T04:49:52;23.64;77.98
77523;SHT31;66637;-29.628;-49.938;2023-03-01T04:52:23;23.62;77.83
77523;SHT31;66637;-29.628;-49.938;2023-03-01T04:55:04;23.62;77.90
77523;SHT31;66637;-29.628;-49.938;2023-03-01T04:57:39;23.59;78.09
77523;SHT31;66637;-29.628;-49.938;2023-03-01T05:00:28;23.57;78.13
77523;SHT31;66637;-29.628;-49.938;2023-03-01T05:03:01;23.48;78.18
77523;SHT31;66637;-29.628;-49.938;2023-03-01T05:05:58;23.50;78.30
77523;SHT31;66637;-29.628;-49.938;2023-03-01T05:08:39;23.48;78.25
77523;SHT31;66637;-29.628;-49.938;2023-03-01T05:11:42;23.45;78.04
77523;SHT31;66637;-29.628;-49.938;2023-03-01T05:14:13;23.45;78.07
77523;SHT31;66637;-29.628;-49.938;2023-03-01T05:16:58;23.43;78.08
77523;SHT31;66637;-29.628;-49.938;2023-03-01T05:19:35;23.41;78.17
77523;SHT31;66637;-29.628;-49.938;2023-03-01T05:22:11;23.41;78.13
77523;SHT31;66637;-29.628;-49.938;2023-03-01T05:25:06;23.40;78.23
77523;SHT31;66637;-29.628;-49.938;2023-03-01T05:27:53;23.41;78.02
77523;SHT31;66637;-29.628;-49.938;2023-03-01T05:30:49;23.38;78.03
77523;SHT31;66637;-29.628;-49.938;2023-03-01T05:33:28;23.35;78.20
77523;SHT31;66637;-29.628;-49.938;2023-03-01T05:36:13;23.30;78.47
77523;SHT31;66637;-29.628;-49.938;2023-03-01T05:38:47;23.30;78.25
77523;SHT31;66637;-29.628;-49.938;2023-03-01T05:41:22;23.33;78.24
77523;SHT31;66637;-29.628;-49.938;2023-03-01T05:44:30;23.40;78.22
77523;SHT31;66637;-29.628;-49.938;2023-03-01T05:47:15;23.34;78.18
77523;SHT31;66637;-29.628;-49.938;2023-03-01T05:49:54;23.33;78.26
77523;SHT31;66637;-29.628;-49.938;2023-03-01T05:52:27;23.33;78.05
77523;SHT31;66637;-29.628;-49.938;2023-03-01T05:55:28;23.34;78.06
77523;SHT31;66637;-29.628;-49.938;2023-03-01T05:58:12;23.28;77.98
77523;SHT31;66637;-29.628;-49.938;2023-03-01T06:01:03;23.37;77.54
77523;SHT31;66637;-29.628;-49.938;2023-03-01T06:03:39;23.30;77.91
77523;SHT31;66637;-29.628;-49.938;2023-03-01T06:06:38;23.25;78.07
77523;SHT31;66637;-29.628;-49.938;2023-03-01T06:09:34;23.27;77.90
77523;SHT31;66637;-29.628;-49.938;2023-03-01T06:12:06;23.23;77.78
77523;SHT31;66637;-29.628;-49.938;2023-03-01T06:14:39;23.18;77.99
77523;SHT31;66637;-29.628;-49.938;2023-03-01T06:17:22;23.14;78.13
77523;SHT31;66637;-29.628;-49.938;2023-03-01T06:20:27;23.14;78.42
77523;SHT31;66637;-29.628;-49.938;2023-03-01T06:23:05;23.11;78.25
77523;SHT31;66637;-29.628;-49.938;2023-03-01T06:25:39;23.03;78.48
77523;SHT31;66637;-29.628;-49.938;2023-03-01T06:28:20;23.04;78.53
77523;SHT31;66637;-29.628;-49.938;2023-03-01T06:31:16;23.02;78.37
77523;SHT31;66637;-29.628;-49.938;2023-03-01T06:33:47;22.99;78.39
77523;SHT31;66637;-29.628;-49.938;2023-03-01T06:36:17;23.03;78.25
77523;SHT31;66637;-29.628;-49.938;2023-03-01T06:38:59;23.04;78.38
77523;SHT31;66637;-29.628;-49.938;2023-03-01T06:41:47;23.03;78.29
77523;SHT31;66637;-29.628;-49.938;2023-03-01T06:44:47;23.07;78.55
77523;SHT31;66637;-29.628;-49.938;2023-03-01T06:47:40;23.11;78.55
77523;SHT31;66637;-29.628;-49.938;2023-03-01T06:50:28;23.15;78.90
77523;SHT31;66637;-29.628;-49.938;2023-03-01T06:53:13;23.18;79.20
77523;SHT31;66637;-29.628;-49.938;2023-03-01T06:55:55;23.27;78.63
77523;SHT31;66637;-29.628;-49.938;2023-03-01T06:58:34;23.24;79.01
77523;SHT31;66637;-29.628;-49.938;2023-03-01T07:01:24;23.24;79.31
77523;SHT31;66637;-29.628;-49.938;2023-03-01T07:04:09;23.24;79.06
77523;SHT31;66637;-29.628;-49.938;2023-03-01T07:07:21;23.27;79.05
77523;SHT31;66637;-29.628;-49.938;2023-03-01T07:09:56;23.28;79.07
77523;SHT31;66637;-29.628;-49.938;2023-03-01T07:12:38;23.30;79.14
77523;SHT31;66637;-29.628;-49.938;2023-03-01T07:15:17;23.33;79.47
77523;SHT31;66637;-29.628;-49.938;2023-03-01T07:18:10;23.30;79.22
77523;SHT31;66637;-29.628;-49.938;2023-03-01T07:20:44;23.34;79.55
77523;SHT31;66637;-29.628;-49.938;2023-03-01T07:23:34;23.31;79.55
77523;SHT31;66637;-29.628;-49.938;2023-03-01T07:26:32;23.27;79.34
77523;SHT31;66637;-29.628;-49.938;2023-03-01T07:29:50;23.24;79.33
77523;SHT31;66637;-29.628;-49.938;2023-03-01T07:32:24;23.21;79.41
77523;SHT31;66637;-29.628;-49.938;2023-03-01T07:35:03;23.25;78.91
77523;SHT31;66637;-29.628;-49.938;2023-03-01T07:37:58;23.15;79.34
77523;SHT31;66637;-29.628;-49.938;2023-03-01T07:41:11;23.15;79.03
77523;SHT31;66637;-29.628;-49.938;2023-03-01T07:43:57;23.14;79.38
77523;SHT31;66637;-29.628;-49.938;2023-03-01T07:46:30;23.14;79.64
77523;SHT31;66637;-29.628;-49.938;2023-03-01T07:49:10;23.10;79.73
77523;SHT31;66637;-29.628;-49.938;2023-03-01T07:51:43;23.11;79.89
77523;SHT31;66637;-29.628;-49.938;2023-03-01T07:54:24;23.10;79.96
77523;SHT31;66637;-29.628;-49.938;2023-03-01T07:57:04;23.11;80.29
77523;SHT31;66637;-29.628;-49.938;2023-03-01T07:59:52;23.11;80.01
77523;SHT31;66637;-29.628;-49.938;2023-03-01T08:02:47;23.13;80.08
77523;SHT31;66637;-29.628;-49.938;2023-03-01T08:05:28;23.10;80.34
77523;SHT31;66637;-29.628;-49.938;2023-03-01T08:08:11;23.13;80.38
77523;SHT31;66637;-29.628;-49.938;2023-03-01T08:10:47;23.11;80.48
77523;SHT31;66637;-29.628;-49.938;2023-03-01T08:13:22;23.06;80.47
77523;SHT31;66637;-29.628;-49.938;2023-03-01T08:16:10;23.06;80.64
77523;SHT31;66637;-29.628;-49.938;2023-03-01T08:19:08;23.08;80.79
77523;SHT31;66637;-29.628;-49.938;2023-03-01T08:21:47;23.10;80.87
77523;SHT31;66637;-29.628;-49.938;2023-03-01T08:24:18;23.11;80.88
77523;SHT31;66637;-29.628;-49.938;2023-03-01T08:26:59;23.07;80.90
77523;SHT31;66637;-29.628;-49.938;2023-03-01T08:29:40;23.08;81.12
77523;SHT31;66637;-29.628;-49.938;2023-03-01T08:32:11;23.10;80.68
77523;SHT31;66637;-29.628;-49.938;2023-03-01T08:34:47;23.10;80.72
77523;SHT31;66637;-29.628;-49.938;2023-03-01T08:37:28;23.10;80.72
77523;SHT31;66637;-29.628;-49.938;2023-03-01T08:40:09;23.04;80.67
77523;SHT31;66637;-29.628;-49.938;2023-03-01T08:42:44;23.04;80.35
77523;SHT31;66637;-29.628;-49.938;2023-03-01T08:45:18;23.02;80.20
77523;SHT31;66637;-29.628;-49.938;2023-03-01T08:47:55;23.00;80.36
77523;SHT31;66637;-29.628;-49.938;2023-03-01T08:50:36;23.02;80.43
77523;SHT31;66637;-29.628;-49.938;2023-03-01T08:53:18;22.99;80.02
77523;SHT31;66637;-29.628;-49.938;2023-03-01T08:55:59;22.94;79.52
77523;SHT31;66637;-29.628;-49.938;2023-03-01T08:58:36;22.87;79.22
77523;SHT31;66637;-29.628;-49.938;2023-03-01T09:01:18;22.84;79.07
77523;SHT31;66637;-29.628;-49.938;2023-03-01T09:03:57;22.87;78.70
77523;SHT31;66637;-29.628;-49.938;2023-03-01T09:06:36;22.86;78.69
77523;SHT31;66637;-29.628;-49.938;2023-03-01T09:09:16;22.84;78.61
77523;SHT31;66637;-29.628;-49.938;2023-03-01T09:11:53;22.84;78.45
77523;SHT31;66637;-29.628;-49.938;2023-03-01T09:14:48;22.87;78.42
77523;SHT31;66637;-29.628;-49.938;2023-03-01T09:17:34;22.87;78.08
77523;SHT31;66637;-29.628;-49.938;2023-03-01T09:20:26;22.86;77.85
77523;SHT31;66637;-29.628;-49.938;2023-03-01T09:23:33;22.89;77.59
77523;SHT31;66637;-29.628;-49.938;2023-03-01T09:26:12;22.93;77.37
77523;SHT31;66637;-29.628;-49.938;2023-03-01T09:28:46;22.97;77.16
77523;SHT31;66637;-29.628;-49.938;2023-03-01T09:31:24;23.07;77.21
77523;SHT31;66637;-29.628;-49.938;2023-03-01T09:34:09;23.10;77.10
77523;SHT31;66637;-29.628;-49.938;2023-03-01T09:36:45;23.21;77.22
77523;SHT31;66637;-29.628;-49.938;2023-03-01T09:39:34;23.33;77.25
77523;SHT31;66637;-29.628;-49.938;2023-03-01T09:42:15;23.47;77.12
77523;SHT31;66637;-29.628;-49.938;2023-03-01T09:45:15;23.61;77.58
77523;SHT31;66637;-29.628;-49.938;2023-03-01T09:47:55;23.69;77.45
77523;SHT31;66637;-29.628;-49.938;2023-03-01T09:51:26;23.79;77.19
77523;SHT31;66637;-29.628;-49.938;2023-03-01T09:54:17;23.79;76.84
77523;SHT31;66637;-29.628;-49.938;2023-03-01T09:56:56;23.95;76.36
77523;SHT31;66637;-29.628;-49.938;2023-03-01T10:06:25;24.01;76.35
77523;SHT31;66637;-29.628;-49.938;2023-03-01T10:09:32;23.99;76.28
77523;SHT31;66637;-29.628;-49.938;2023-03-01T10:12:12;24.06;76.05
77523;SHT31;66637;-29.628;-49.938;2023-03-01T10:18:21;24.20;75.17
77523;SHT31;66637;-29.628;-49.938;2023-03-01T10:21:18;24.29;75.06
77523;SHT31;66637;-29.628;-49.938;2023-03-01T10:24:18;24.36;74.95
77523;SHT31;66637;-29.628;-49.938;2023-03-01T10:27:27;24.39;74.81
77523;SHT31;66637;-29.628;-49.938;2023-03-01T10:30:38;24.40;75.34
77523;SHT31;66637;-29.628;-49.938;2023-03-01T10:33:40;24.32;75.15
77523;SHT31;66637;-29.628;-49.938;2023-03-01T10:36:15;24.28;75.09
77523;SHT31;66637;-29.628;-49.938;2023-03-01T10:38:58;24.44;75.27
77523;SHT31;66637;-29.628;-49.938;2023-03-01T10:41:33;24.63;74.15
77523;SHT31;66637;-29.628;-49.938;2023-03-01T10:47:26;26.73;65.80
77523;SHT31;66637;-29.628;-49.938;2023-03-01T10:50:19;27.25;64.49
77523;SHT31;66637;-29.628;-49.938;2023-03-01T10:53:03;27.62;63.10
77523;SHT31;66637;-29.628;-49.938;2023-03-01T10:55:40;27.82;60.54
77523;SHT31;66637;-29.628;-49.938;2023-03-01T10:58:59;27.88;61.17
77523;SHT31;66637;-29.628;-49.938;2023-03-01T11:01:36;27.90;61.09
77523;SHT31;66637;-29.628;-49.938;2023-03-01T11:04:15;28.06;60.32
77523;SHT31;66637;-29.628;-49.938;2023-03-01T11:07:03;28.16;59.17
77523;SHT31;66637;-29.628;-49.938;2023-03-01T11:10:35;28.45;59.84
77523;SHT31;66637;-29.628;-49.938;2023-03-01T11:17:31;28.72;59.70
77523;SHT31;66637;-29.628;-49.938;2023-03-01T11:20:36;28.69;59.04
77523;SHT31;66637;-29.628;-49.938;2023-03-01T11:23:37;28.81;58.85
77523;SHT31;66637;-29.628;-49.938;2023-03-01T11:26:41;28.75;58.72
77523;SHT31;66637;-29.628;-49.938;2023-03-01T11:36:37;29.37;58.73
77523;SHT31;66637;-29.628;-49.938;2023-03-01T11:39:29;29.39;58.14
77523;SHT31;66637;-29.628;-49.938;2023-03-01T11:42:52;29.62;57.83
77523;SHT31;66637;-29.628;-49.938;2023-03-01T11:49:19;29.67;55.47
77523;SHT31;66637;-29.628;-49.938;2023-03-01T11:52:52;29.88;55.29
77523;SHT31;66637;-29.628;-49.938;2023-03-01T11:59:43;29.77;55.77
77523;SHT31;66637;-29.628;-49.938;2023-03-01T12:08:33;30.31;53.98
77523;SHT31;66637;-29.628;-49.938;2023-03-01T12:17:52;30.31;54.85
77523;SHT31;66637;-29.628;-49.938;2023-03-01T12:24:33;30.42;55.63
77523;SHT31;66637;-29.628;-49.938;2023-03-01T12:47:11;30.59;54.22
77523;SHT31;66637;-29.628;-49.938;2023-03-01T12:50:24;30.69;55.00
77523;SHT31;66637;-29.628;-49.938;2023-03-01T12:53:37;30.71;54.63
77523;SHT31;66637;-29.628;-49.938;2023-03-01T12:56:27;30.68;52.76
77523;SHT31;66637;-29.628;-49.938;2023-03-01T12:59:33;30.62;54.84
77523;SHT31;66637;-29.628;-49.938;2023-03-01T13:02:43;30.64;55.13
77523;SHT31;66637;-29.628;-49.938;2023-03-01T13:05:46;30.37;54.45
77523;SHT31;66637;-29.628;-49.938;2023-03-01T13:09:02;30.52;55.75
77523;SHT31;66637;-29.628;-49.938;2023-03-01T13:11:45;30.85;54.61
77523;SHT31;66637;-29.628;-49.938;2023-03-01T13:14:46;30.78;54.45
77523;SHT31;66637;-29.628;-49.938;2023-03-01T13:21:58;31.04;53.11
77523;SHT31;66637;-29.628;-49.938;2023-03-01T13:25:29;31.29;54.04
77523;SHT31;66637;-29.628;-49.938;2023-03-01T13:28:51;31.32;53.11
77523;SHT31;66637;-29.628;-49.938;2023-03-01T13:35:03;31.40;51.81
77523;SHT31;66637;-29.628;-49.938;2023-03-01T13:41:54;31.04;53.17
77523;SHT31;66637;-29.628;-49.938;2023-03-01T13:44:37;31.32;53.25
77523;SHT31;66637;-29.628;-49.938;2023-03-01T13:47:18;31.27;53.54
77523;SHT31;66637;-29.628;-49.938;2023-03-01T13:50:33;31.22;54.16
77523;SHT31;66637;-29.628;-49.938;2023-03-01T13:53:55;31.09;54.56
77523;SHT31;66637;-29.628;-49.938;2023-03-01T13:57:20;31.30;53.21
77523;SHT31;66637;-29.628;-49.938;2023-03-01T14:00:35;31.08;53.13
77523;SHT31;66637;-29.628;-49.938;2023-03-01T14:03:21;31.13;53.50
77523;SHT31;66637;-29.628;-49.938;2023-03-01T14:06:28;31.33;54.43
77523;SHT31;66637;-29.628;-49.938;2023-03-01T14:09:38;31.18;54.10
77523;SHT31;66637;-29.628;-49.938;2023-03-01T14:13:37;31.32;55.20
77523;SHT31;66637;-29.628;-49.938;2023-03-01T14:19:27;31.03;56.64
77523;SHT31;66637;-29.628;-49.938;2023-03-01T14:22:33;31.20;56.17
77523;SHT31;66637;-29.628;-49.938;2023-03-01T14:25:33;31.37;56.14
77523;SHT31;66637;-29.628;-49.938;2023-03-01T14:28:37;31.33;56.81
77523;SHT31;66637;-29.628;-49.938;2023-03-01T14:31:39;31.33;56.42
77523;SHT31;66637;-29.628;-49.938;2023-03-01T14:34:49;31.40;56.79
77523;SHT31;66637;-29.628;-49.938;2023-03-01T14:37:40;31.53;56.80
77523;SHT31;66637;-29.628;-49.938;2023-03-01T14:40:38;31.67;56.53
77523;SHT31;66637;-29.628;-49.938;2023-03-01T14:44:16;31.56;57.39
77523;SHT31;66637;-29.628;-49.938;2023-03-01T14:47:03;31.61;57.24
77523;SHT31;66637;-29.628;-49.938;2023-03-01T14:50:02;31.66;57.40
77523;SHT31;66637;-29.628;-49.938;2023-03-01T14:53:05;31.44;57.85
77523;SHT31;66637;-29.628;-49.938;2023-03-01T14:55:59;31.44;57.81
77523;SHT31;66637;-29.628;-49.938;2023-03-01T14:59:01;31.51;58.79
77523;SHT31;66637;-29.628;-49.938;2023-03-01T15:01:57;31.77;57.91
77523;SHT31;66637;-29.628;-49.938;2023-03-01T15:05:05;31.85;57.18
77523;SHT31;66637;-29.628;-49.938;2023-03-01T15:07:51;31.61;57.99
77523;SHT31;66637;-29.628;-49.938;2023-03-01T15:10:54;31.36;57.92
77523;SHT31;66637;-29.628;-49.938;2023-03-01T15:13:53;31.51;58.60
77523;SHT31;66637;-29.628;-49.938;2023-03-01T15:16:34;31.83;58.08
77523;SHT31;66637;-29.628;-49.938;2023-03-01T15:19:28;31.73;58.08
77523;SHT31;66637;-29.628;-49.938;2023-03-01T15:22:26;31.44;58.06
77523;SHT31;66637;-29.628;-49.938;2023-03-01T15:25:29;31.36;58.18
77523;SHT31;66637;-29.628;-49.938;2023-03-01T15:28:52;31.40;59.36
77523;SHT31;66637;-29.628;-49.938;2023-03-01T15:31:59;31.59;59.51
77523;SHT31;66637;-29.628;-49.938;2023-03-01T15:34:39;31.50;58.08
77523;SHT31;66637;-29.628;-49.938;2023-03-01T15:37:39;31.70;58.38
77523;SHT31;66637;-29.628;-49.938;2023-03-01T15:40:33;31.50;58.49
77523;SHT31;66637;-29.628;-49.938;2023-03-01T15:43:46;31.63;59.00
77523;SHT31;66637;-29.628;-49.938;2023-03-01T15:46:44;31.54;59.22
77523;SHT31;66637;-29.628;-49.938;2023-03-01T15:49:48;31.59;58.87
77523;SHT31;66637;-29.628;-49.938;2023-03-01T15:55:46;31.26;60.31
77523;SHT31;66637;-29.628;-49.938;2023-03-01T15:58:53;31.33;59.19
77523;SHT31;66637;-29.628;-49.938;2023-03-01T16:01:54;31.23;58.50
77523;SHT31;66637;-29.628;-49.938;2023-03-01T16:05:01;31.29;58.35
77523;SHT31;66637;-29.628;-49.938;2023-03-01T16:08:01;31.34;59.09
77523;SHT31;66637;-29.628;-49.938;2023-03-01T16:10:41;31.26;59.31
77523;SHT31;66637;-29.628;-49.938;2023-03-01T16:13:38;31.20;59.66
77523;SHT31;66637;-29.628;-49.938;2023-03-01T16:16:33;31.19;60.25
77523;SHT31;66637;-29.628;-49.938;2023-03-01T16:19:34;31.26;59.23
77523;SHT31;66637;-29.628;-49.938;2023-03-01T16:22:11;31.42;59.94
77523;SHT31;66637;-29.628;-49.938;2023-03-01T16:25:20;31.20;60.25
77523;SHT31;66637;-29.628;-49.938;2023-03-01T16:28:13;31.15;59.67
77523;SHT31;66637;-29.628;-49.938;2023-03-01T16:31:09;31.12;60.64
77523;SHT31;66637;-29.628;-49.938;2023-03-01T16:33:59;31.34;60.38
77523;SHT31;66637;-29.628;-49.938;2023-03-01T16:36:45;31.36;60.18
77523;SHT31;66637;-29.628;-49.938;2023-03-01T16:39:34;31.29;60.76
77523;SHT31;66637;-29.628;-49.938;2023-03-01T16:42:17;31.18;59.91
77523;SHT31;66637;-29.628;-49.938;2023-03-01T16:45:14;31.50;60.09
77523;SHT31;66637;-29.628;-49.938;2023-03-01T16:47:58;31.27;59.70
77523;SHT31;66637;-29.628;-49.938;2023-03-01T16:50:41;31.19;60.03
77523;SHT31;66637;-29.628;-49.938;2023-03-01T16:53:56;31.09;60.66
77523;SHT31;66637;-29.628;-49.938;2023-03-01T16:56:42;30.98;60.60
77523;SHT31;66637;-29.628;-49.938;2023-03-01T16:59:36;31.09;60.94
77523;SHT31;66637;-29.628;-49.938;2023-03-01T17:02:41;31.13;60.65
77523;SHT31;66637;-29.628;-49.938;2023-03-01T17:05:28;31.15;60.00
77523;SHT31;66637;-29.628;-49.938;2023-03-01T17:08:29;30.96;60.99
77523;SHT31;66637;-29.628;-49.938;2023-03-01T17:11:46;30.92;61.26
77523;SHT31;66637;-29.628;-49.938;2023-03-01T17:14:41;30.96;61.47
77523;SHT31;66637;-29.628;-49.938;2023-03-01T17:17:29;30.95;61.95
77523;SHT31;66637;-29.628;-49.938;2023-03-01T17:20:25;30.99;61.49
77523;SHT31;66637;-29.628;-49.938;2023-03-01T17:23:45;30.76;61.49
77523;SHT31;66637;-29.628;-49.938;2023-03-01T17:26:58;31.02;61.46
77523;SHT31;66637;-29.628;-49.938;2023-03-01T17:30:06;30.74;61.40
77523;SHT31;66637;-29.628;-49.938;2023-03-01T17:32:55;30.85;61.71
77523;SHT31;66637;-29.628;-49.938;2023-03-01T17:35:42;30.48;61.13
77523;SHT31;66637;-29.628;-49.938;2023-03-01T17:38:39;30.52;61.25
77523;SHT31;66637;-29.628;-49.938;2023-03-01T17:41:22;30.69;60.75
77523;SHT31;66637;-29.628;-49.938;2023-03-01T17:44:22;30.42;61.61
77523;SHT31;66637;-29.628;-49.938;2023-03-01T17:47:47;30.32;61.30
77523;SHT31;66637;-29.628;-49.938;2023-03-01T17:50:38;30.32;61.20
77523;SHT31;66637;-29.628;-49.938;2023-03-01T17:53:28;30.37;61.21
77523;SHT31;66637;-29.628;-49.938;2023-03-01T17:56:26;30.29;61.35
77523;SHT31;66637;-29.628;-49.938;2023-03-01T17:59:27;30.31;62.33
77523;SHT31;66637;-29.628;-49.938;2023-03-01T18:02:45;30.08;62.06
77523;SHT31;66637;-29.628;-49.938;2023-03-01T18:05:45;30.42;61.71
77523;SHT31;66637;-29.628;-49.938;2023-03-01T18:08:26;30.20;61.95
77523;SHT31;66637;-29.628;-49.938;2023-03-01T18:11:31;30.06;61.47
77523;SHT31;66637;-29.628;-49.938;2023-03-01T18:14:32;29.88;61.62
77523;SHT31;66637;-29.628;-49.938;2023-03-01T18:17:57;30.00;61.65
77523;SHT31;66637;-29.628;-49.938;2023-03-01T18:20:53;29.93;62.19
77523;SHT31;66637;-29.628;-49.938;2023-03-01T18:23:43;29.94;62.07
77523;SHT31;66637;-29.628;-49.938;2023-03-01T18:26:32;29.56;62.66
77523;SHT31;66637;-29.628;-49.938;2023-03-01T18:29:19;29.80;61.76
77523;SHT31;66637;-29.628;-49.938;2023-03-01T18:32:10;29.83;61.84
77523;SHT31;66637;-29.628;-49.938;2023-03-01T18:35:04;29.81;61.65
77523;SHT31;66637;-29.628;-49.938;2023-03-01T18:38:08;29.83;61.27
77523;SHT31;66637;-29.628;-49.938;2023-03-01T18:40:57;29.80;62.10
77523;SHT31;66637;-29.628;-49.938;2023-03-01T18:44:12;30.07;61.62
77523;SHT31;66637;-29.628;-49.938;2023-03-01T18:46:43;29.93;61.49
77523;SHT31;66637;-29.628;-49.938;2023-03-01T18:49:49;29.91;61.57
77523;SHT31;66637;-29.628;-49.938;2023-03-01T18:52:31;29.88;61.57
77523;SHT31;66637;-29.628;-49.938;2023-03-01T18:55:26;29.97;62.19